Rineyville, KY

5:03 AM EST on February 12, 2016 (GMT -0500)
Wandering Meadows | | Change Station
CLOSE
Current Station
Personal Weather Station
Location: Vine Grove, KY
Elevation: 719 ft
Nearby Weather Stations
Active Advisory: Special Statement

Elev 719 ft 37.81 °N, 86.03 °W | Updated 6 minutes ago

Overcast
Overcast
25.3 °F
Feels Like 25 °F
N
0.0
Wind Variable Wind from ESE

Today
High -- | Low -- °F
--% Chance of Precip.
Yesterday
High -- | Low -- °F
Precip. -- in
Pressure 30.22 in
Visibility 10.0 miles
Clouds Overcast 7000 ft
Windchill 25 °F
Dew Point 18 °F
Humidity 72%
Rainfall 0.00 in
Snow Depth Not available.
7:37 AM 6:19 PM
Waxing Crescent, 19% visible
METAR KFTK 120958Z AUTO 22002KT 10SM OVC070 M04/M11 A3018 RMK AO2 SLP231 T10361107
Pressure 30.22 in
Visibility 10.0 miles
Clouds Overcast 7000 ft
Windchill 25 °F
Dew Point 18 °F
Humidity 72%
Rainfall 0.00 in
Snow Depth Not available.
7:37 AM 6:19 PM
Waxing Crescent, 19% visible
METAR KFTK 120958Z AUTO 22002KT 10SM OVC070 M04/M11 A3018 RMK AO2 SLP231 T10361107

10-Day Weather Forecast

Almanac

Astronomy

Feb. 12, 2016 Rise Set
Actual Time
Civil Twilight
Nautical Twilight
Astronomical Twilight
Moon
Length of Visible Light
Length of Day
Tomorrow will be .
, % of the Moon is Illuminated

Today's Extremes

State Highs State Lows

Community

WunderPhotos

Upload Photos

1,892,287 photos uploaded!

WunderBlog® & News

Nearby

Air Quality

  Air Quality AQ Index Pollutant
Not available.

Snow Depth

Station Depth Elevation

Earthquake Activity

City Distance Mag. Time & Date
Minimum magnitude displayed is 2.5.

Coastal Water Temperatures

Place Temperature

Stations

Nearby Weather Stations

Station Location Temp. Windchill Dew Point Humidity Wind Precip. Elev Updated Type
                   

Watches & Warnings

Special Statement
Issued: 3:03 AM CST Feb. 12, 2016 – National Weather Service

... Light snow around the Friday morning commute...

Light snow will overspread the region around dawn this morning.
With temperatures in the lower to middle 20s... all snow will stick
to untreated surfaces. Although snow accumulations are expected to
be a half of an inch or less... a few slick spots are possible
during the morning commute. Motorists should use caution... slow
down... and allow extra time to travel to work this morning.


Mj